This is the latest recevied weather packets stored in our database for station/object OM6ACB-6. If no packets are shown the sender has not sent any weather packets the latest 10 day(s).
| Time | Temp. | Humidity | Pressure | Rain* | Wind** | Luminosity | Snow |
|---|---|---|---|---|---|---|---|
| 1777624889 | 13.33° C | 26% | 1029.9 hPa | 0 mm | - | - | - |
| 1777624288 | 12.78° C | 26% | 1029.7 hPa | 0 mm | - | - | - |
| 1777623688 | 13.33° C | 26% | 1029.7 hPa | 0 mm | - | - | - |
| 1777623088 | 11.67° C | 27% | 1029.6 hPa | 0 mm | - | - | - |
| 1777622487 | 8.89° C | 28% | 1029.3 hPa | 0 mm | - | - | - |
| 1777621887 | 9.44° C | 28% | 1029.3 hPa | 0 mm | - | - | - |
| 1777621287 | 8.33° C | 28% | 1029.2 hPa | 0 mm | - | - | - |
| 1777620687 | 8.33° C | 28% | 1029.2 hPa | 0 mm | - | - | - |
| 1777620086 | 7.78° C | 29% | 1029 hPa | 0 mm | - | - | - |
| 1777619486 | 7.22° C | 29% | 1028.9 hPa | 0 mm | - | - | - |
| 1777618886 | 7.22° C | 29% | 1028.8 hPa | 0 mm | - | - | - |
| 1777618285 | 6.67° C | 29% | 1028.8 hPa | 0 mm | - | - | - |
| 1777617685 | 7.22° C | 29% | 1028.8 hPa | 0 mm | - | - | - |
| 1777617085 | 6.67° C | 29% | 1028.6 hPa | 0 mm | - | - | - |
| 1777616484 | 7.22° C | 29% | 1028.6 hPa | 0 mm | - | - | - |
| 1777615884 | 6.11° C | 30% | 1028.4 hPa | 0 mm | - | - | - |
| 1777615284 | 5.56° C | 30% | 1028.3 hPa | 0 mm | - | - | - |
| 1777614684 | 5° C | 30% | 1028.2 hPa | 0 mm | - | - | - |
| 1777614083 | 4.44° C | 30% | 1028.3 hPa | 0 mm | - | - | - |
| 1777613483 | 4.44° C | 30% | 1028.2 hPa | 0 mm | - | - | - |
| 1777612883 | 3.89° C | 31% | 1028.2 hPa | 0 mm | - | - | - |
| 1777612282 | 3.89° C | 31% | 1028 hPa | 0 mm | - | - | - |
| 1777611682 | 3.33° C | 31% | 1028 hPa | 0 mm | - | - | - |
| 1777611082 | 3.33° C | 31% | 1027.9 hPa | 0 mm | - | - | - |
| 1777610482 | 2.78° C | 31% | 1027.8 hPa | 0 mm | - | - | - |
* Rain latest hour (hover to see other rain measurements)
** Current wind speed in m/s (hover to see current wind gust speed)